sensor_id;sensor_type;location;lat;lon;timestamp;pressure;altitude;pressure_sealevel;temperature;humidity
13314;BME280;6725;48.112;11.604;2023-05-16T00:00:33;94438.22;;;11.50;100.00
13314;BME280;6725;48.112;11.604;2023-05-16T00:03:00;94437.38;;;11.53;100.00
13314;BME280;6725;48.112;11.604;2023-05-16T00:05:25;94436.50;;;11.56;100.00
13314;BME280;6725;48.112;11.604;2023-05-16T00:07:51;94435.84;;;11.52;100.00
13314;BME280;6725;48.112;11.604;2023-05-16T00:10:16;94440.97;;;11.50;100.00
13314;BME280;6725;48.112;11.604;2023-05-16T00:12:42;94431.78;;;11.44;100.00
13314;BME280;6725;48.112;11.604;2023-05-16T00:15:10;94425.53;;;11.43;100.00
13314;BME280;6725;48.112;11.604;2023-05-16T00:17:38;94430.22;;;11.43;100.00
13314;BME280;6725;48.112;11.604;2023-05-16T00:20:05;94421.16;;;11.46;100.00
13314;BME280;6725;48.112;11.604;2023-05-16T00:22:39;94422.91;;;11.40;100.00
13314;BME280;6725;48.112;11.604;2023-05-16T00:25:05;94421.34;;;11.39;100.00
13314;BME280;6725;48.112;11.604;2023-05-16T00:27:33;94415.22;;;11.35;100.00
13314;BME280;6725;48.112;11.604;2023-05-16T00:29:58;94403.63;;;11.31;100.00
13314;BME280;6725;48.112;11.604;2023-05-16T00:32:24;94392.69;;;11.31;100.00
13314;BME280;6725;48.112;11.604;2023-05-16T00:34:49;94388.22;;;11.37;100.00
13314;BME280;6725;48.112;11.604;2023-05-16T00:37:15;94389.44;;;11.36;100.00
13314;BME280;6725;48.112;11.604;2023-05-16T00:39:40;94378.50;;;11.36;100.00
13314;BME280;6725;48.112;11.604;2023-05-16T00:42:06;94378.50;;;11.36;100.00
13314;BME280;6725;48.112;11.604;2023-05-16T00:44:31;94375.00;;;11.35;100.00
13314;BME280;6725;48.112;11.604;2023-05-16T00:46:57;94372.69;;;11.34;100.00
13314;BME280;6725;48.112;11.604;2023-05-16T00:49:24;94370.72;;;11.34;100.00
13314;BME280;6725;48.112;11.604;2023-05-16T00:51:50;94375.06;;;11.32;100.00
13314;BME280;6725;48.112;11.604;2023-05-16T00:54:16;94375.53;;;11.30;100.00
13314;BME280;6725;48.112;11.604;2023-05-16T00:56:41;94379.00;;;11.31;100.00
13314;BME280;6725;48.112;11.604;2023-05-16T00:59:07;94378.59;;;11.32;100.00
13314;BME280;6725;48.112;11.604;2023-05-16T01:01:32;94368.00;;;11.34;100.00
13314;BME280;6725;48.112;11.604;2023-05-16T01:03:59;94367.56;;;11.36;100.00
13314;BME280;6725;48.112;11.604;2023-05-16T01:06:25;94366.00;;;11.35;100.00
13314;BME280;6725;48.112;11.604;2023-05-16T01:08:50;94360.66;;;11.31;100.00
13314;BME280;6725;48.112;11.604;2023-05-16T01:11:29;94352.13;;;11.29;100.00
13314;BME280;6725;48.112;11.604;2023-05-16T01:16:44;94343.47;;;11.31;100.00
13314;BME280;6725;48.112;11.604;2023-05-16T01:22:08;94337.16;;;11.34;100.00
13314;BME280;6725;48.112;11.604;2023-05-16T01:27:26;94335.63;;;11.33;100.00
13314;BME280;6725;48.112;11.604;2023-05-16T01:29:55;94345.78;;;11.32;100.00
13314;BME280;6725;48.112;11.604;2023-05-16T01:32:20;94339.53;;;11.32;100.00
13314;BME280;6725;48.112;11.604;2023-05-16T01:34:47;94338.56;;;11.26;100.00
13314;BME280;6725;48.112;11.604;2023-05-16T01:37:18;94337.91;;;11.22;100.00
13314;BME280;6725;48.112;11.604;2023-05-16T01:39:56;94331.88;;;11.27;100.00
13314;BME280;6725;48.112;11.604;2023-05-16T01:42:26;94330.38;;;11.26;100.00
13314;BME280;6725;48.112;11.604;2023-05-16T01:44:59;94328.13;;;11.21;100.00
13314;BME280;6725;48.112;11.604;2023-05-16T01:47:26;94326.63;;;11.20;100.00
13314;BME280;6725;48.112;11.604;2023-05-16T01:52:27;94318.09;;;11.18;100.00
13314;BME280;6725;48.112;11.604;2023-05-16T01:54:57;94312.84;;;11.11;100.00
13314;BME280;6725;48.112;11.604;2023-05-16T01:57:25;94315.13;;;11.12;100.00
13314;BME280;6725;48.112;11.604;2023-05-16T01:59:51;94309.31;;;11.10;100.00
13314;BME280;6725;48.112;11.604;2023-05-16T02:02:20;94304.22;;;11.12;100.00
13314;BME280;6725;48.112;11.604;2023-05-16T02:04:45;94305.81;;;11.10;100.00
13314;BME280;6725;48.112;11.604;2023-05-16T02:07:11;94303.97;;;11.07;100.00
13314;BME280;6725;48.112;11.604;2023-05-16T02:09:39;94309.75;;;11.09;100.00
13314;BME280;6725;48.112;11.604;2023-05-16T02:12:04;94312.16;;;11.07;100.00
13314;BME280;6725;48.112;11.604;2023-05-16T02:14:30;94313.78;;;11.04;100.00
13314;BME280;6725;48.112;11.604;2023-05-16T02:16:55;94313.69;;;11.08;100.00
13314;BME280;6725;48.112;11.604;2023-05-16T02:19:21;94322.22;;;11.10;100.00
13314;BME280;6725;48.112;11.604;2023-05-16T02:21:46;94316.75;;;11.10;100.00
13314;BME280;6725;48.112;11.604;2023-05-16T02:24:11;94315.22;;;11.09;100.00
13314;BME280;6725;48.112;11.604;2023-05-16T02:26:37;94326.16;;;11.09;100.00
13314;BME280;6725;48.112;11.604;2023-05-16T02:29:02;94326.16;;;11.09;100.00
13314;BME280;6725;48.112;11.604;2023-05-16T02:31:29;94330.09;;;11.08;100.00
13314;BME280;6725;48.112;11.604;2023-05-16T02:33:56;94328.56;;;11.07;100.00
13314;BME280;6725;48.112;11.604;2023-05-16T02:36:21;94339.50;;;11.07;100.00
13314;BME280;6725;48.112;11.604;2023-05-16T02:38:46;94334.03;;;11.07;100.00
13314;BME280;6725;48.112;11.604;2023-05-16T02:41:12;94337.06;;;11.09;100.00
13314;BME280;6725;48.112;11.604;2023-05-16T02:43:37;94340.47;;;11.13;100.00
13314;BME280;6725;48.112;11.604;2023-05-16T02:46:26;94338.16;;;11.11;100.00
13314;BME280;6725;48.112;11.604;2023-05-16T02:48:52;94333.06;;;11.13;100.00
13314;BME280;6725;48.112;11.604;2023-05-16T02:51:22;94342.34;;;11.16;100.00
13314;BME280;6725;48.112;11.604;2023-05-16T02:53:49;94343.56;;;11.15;100.00
13314;BME280;6725;48.112;11.604;2023-05-16T02:56:14;94343.13;;;11.16;100.00
13314;BME280;6725;48.112;11.604;2023-05-16T02:58:40;94350.22;;;11.14;100.00
13314;BME280;6725;48.112;11.604;2023-05-16T03:01:06;94359.28;;;11.11;100.00
13314;BME280;6725;48.112;11.604;2023-05-16T03:03:32;94356.63;;;11.07;100.00
13314;BME280;6725;48.112;11.604;2023-05-16T03:05:59;94358.59;;;11.07;100.00
13314;BME280;6725;48.112;11.604;2023-05-16T03:08:25;94355.09;;;11.06;100.00
13314;BME280;6725;48.112;11.604;2023-05-16T03:10:50;94351.59;;;11.06;100.00
13314;BME280;6725;48.112;11.604;2023-05-16T03:13:15;94350.41;;;11.07;100.00
13314;BME280;6725;48.112;11.604;2023-05-16T03:15:41;94342.53;;;11.09;100.00
13314;BME280;6725;48.112;11.604;2023-05-16T03:18:06;94337.84;;;11.09;100.00
13314;BME280;6725;48.112;11.604;2023-05-16T03:20:32;94343.19;;;11.13;100.00
13314;BME280;6725;48.112;11.604;2023-05-16T03:22:58;94331.09;;;11.14;100.00
13314;BME280;6725;48.112;11.604;2023-05-16T03:25:23;94332.28;;;11.13;100.00
13314;BME280;6725;48.112;11.604;2023-05-16T03:27:48;94330.75;;;11.12;100.00
13314;BME280;6725;48.112;11.604;2023-05-16T03:30:14;94322.91;;;11.14;100.00
13314;BME280;6725;48.112;11.604;2023-05-16T03:32:40;94318.97;;;11.15;100.00
13314;BME280;6725;48.112;11.604;2023-05-16T03:35:06;94321.34;;;11.13;100.00
13314;BME280;6725;48.112;11.604;2023-05-16T03:37:31;94317.44;;;11.14;100.00
13314;BME280;6725;48.112;11.604;2023-05-16T03:39:56;94315.03;;;11.16;100.00
13314;BME280;6725;48.112;11.604;2023-05-16T03:42:22;94325.94;;;11.16;100.00
13314;BME280;6725;48.112;11.604;2023-05-16T03:44:47;94324.44;;;11.15;100.00
13314;BME280;6725;48.112;11.604;2023-05-16T03:47:13;94325.09;;;11.19;100.00
13314;BME280;6725;48.112;11.604;2023-05-16T03:49:38;94332.09;;;11.20;100.00
13314;BME280;6725;48.112;11.604;2023-05-16T03:52:04;94345.00;;;11.19;100.00
13314;BME280;6725;48.112;11.604;2023-05-16T03:54:30;94353.63;;;11.18;100.00
13314;BME280;6725;48.112;11.604;2023-05-16T03:56:55;94353.63;;;11.18;100.00
13314;BME280;6725;48.112;11.604;2023-05-16T03:59:21;94372.75;;;11.18;100.00
13314;BME280;6725;48.112;11.604;2023-05-16T04:01:46;94378.97;;;11.18;100.00
13314;BME280;6725;48.112;11.604;2023-05-16T04:04:12;94384.44;;;11.18;100.00
13314;BME280;6725;48.112;11.604;2023-05-16T04:06:38;94394.63;;;11.18;100.00
13314;BME280;6725;48.112;11.604;2023-05-16T04:09:04;94405.53;;;11.18;100.00
13314;BME280;6725;48.112;11.604;2023-05-16T04:11:30;94410.66;;;11.16;100.00
13314;BME280;6725;48.112;11.604;2023-05-16T04:13:56;94404.41;;;11.15;100.00
13314;BME280;6725;48.112;11.604;2023-05-16T04:16:22;94420.81;;;11.15;100.00
13314;BME280;6725;48.112;11.604;2023-05-16T04:18:47;94424.00;;;11.14;100.00
13314;BME280;6725;48.112;11.604;2023-05-16T04:21:12;94433.06;;;11.11;100.00
13314;BME280;6725;48.112;11.604;2023-05-16T04:23:40;94421.25;;;11.14;100.00
13314;BME280;6725;48.112;11.604;2023-05-16T04:26:05;94419.94;;;11.18;100.00
13314;BME280;6725;48.112;11.604;2023-05-16T04:28:30;94426.00;;;11.26;100.00
13314;BME280;6725;48.112;11.604;2023-05-16T04:30:56;94434.53;;;11.28;100.00
13314;BME280;6725;48.112;11.604;2023-05-16T04:33:22;94440.34;;;11.30;100.00
13314;BME280;6725;48.112;11.604;2023-05-16T04:35:47;94441.97;;;11.27;100.00
13314;BME280;6725;48.112;11.604;2023-05-16T04:38:12;94456.06;;;11.26;100.00
13314;BME280;6725;48.112;11.604;2023-05-16T04:40:38;94460.00;;;11.25;100.00
13314;BME280;6725;48.112;11.604;2023-05-16T04:43:06;94460.69;;;11.29;100.00
13314;BME280;6725;48.112;11.604;2023-05-16T04:45:31;94461.78;;;11.31;100.00
13314;BME280;6725;48.112;11.604;2023-05-16T04:47:56;94464.41;;;11.35;100.00
13314;BME280;6725;48.112;11.604;2023-05-16T04:50:22;94464.41;;;11.35;100.00
13314;BME280;6725;48.112;11.604;2023-05-16T04:52:47;94455.72;;;11.40;100.00
13314;BME280;6725;48.112;11.604;2023-05-16T04:55:12;94459.53;;;11.42;100.00
13314;BME280;6725;48.112;11.604;2023-05-16T04:57:38;94466.97;;;11.42;100.00
13314;BME280;6725;48.112;11.604;2023-05-16T05:00:05;94469.28;;;11.43;100.00
13314;BME280;6725;48.112;11.604;2023-05-16T05:02:33;94466.47;;;11.47;100.00
13314;BME280;6725;48.112;11.604;2023-05-16T05:04:58;94490.91;;;11.38;100.00
13314;BME280;6725;48.112;11.604;2023-05-16T05:07:23;94495.50;;;11.41;100.00
13314;BME280;6725;48.112;11.604;2023-05-16T05:09:52;94497.81;;;11.42;100.00
13314;BME280;6725;48.112;11.604;2023-05-16T05:12:20;94504.38;;;11.45;100.00
13314;BME280;6725;48.112;11.604;2023-05-16T05:14:45;94507.66;;;11.40;100.00
13314;BME280;6725;48.112;11.604;2023-05-16T05:17:11;94522.84;;;11.41;100.00
13314;BME280;6725;48.112;11.604;2023-05-16T05:19:36;94525.22;;;11.39;100.00
13314;BME280;6725;48.112;11.604;2023-05-16T05:22:01;94528.75;;;11.39;100.00
13314;BME280;6725;48.112;11.604;2023-05-16T05:24:27;94523.63;;;11.41;100.00
13314;BME280;6725;48.112;11.604;2023-05-16T05:26:52;94529.41;;;11.43;100.00
13314;BME280;6725;48.112;11.604;2023-05-16T05:29:18;94528.13;;;11.48;100.00
13314;BME280;6725;48.112;11.604;2023-05-16T05:31:43;94524.78;;;11.56;100.00
13314;BME280;6725;48.112;11.604;2023-05-16T05:34:08;94526.66;;;11.59;100.00
13314;BME280;6725;48.112;11.604;2023-05-16T05:36:34;94537.53;;;11.63;100.00
13314;BME280;6725;48.112;11.604;2023-05-16T05:38:59;94545.31;;;11.64;100.00
13314;BME280;6725;48.112;11.604;2023-05-16T05:41:24;94555.53;;;11.60;100.00
13314;BME280;6725;48.112;11.604;2023-05-16T05:43:51;94569.91;;;11.64;100.00
13314;BME280;6725;48.112;11.604;2023-05-16T05:46:16;94570.50;;;11.72;100.00
13314;BME280;6725;48.112;11.604;2023-05-16T05:48:42;94583.66;;;11.77;100.00
13314;BME280;6725;48.112;11.604;2023-05-16T05:51:07;94585.25;;;11.90;100.00
13314;BME280;6725;48.112;11.604;2023-05-16T05:53:33;94609.59;;;12.01;100.00
13314;BME280;6725;48.112;11.604;2023-05-16T05:55:58;94611.81;;;12.06;100.00
13314;BME280;6725;48.112;11.604;2023-05-16T05:58:24;94613.34;;;12.07;100.00
13314;BME280;6725;48.112;11.604;2023-05-16T06:00:49;94623.06;;;12.24;100.00
13314;BME280;6725;48.112;11.604;2023-05-16T06:03:15;94634.69;;;12.28;100.00
13314;BME280;6725;48.112;11.604;2023-05-16T06:05:40;94651.97;;;12.25;100.00
13314;BME280;6725;48.112;11.604;2023-05-16T06:08:06;94672.47;;;12.33;100.00
13314;BME280;6725;48.112;11.604;2023-05-16T06:10:31;94668.69;;;12.43;100.00
13314;BME280;6725;48.112;11.604;2023-05-16T06:12:56;94665.09;;;12.46;100.00
13314;BME280;6725;48.112;11.604;2023-05-16T06:15:24;94676.28;;;12.51;100.00
13314;BME280;6725;48.112;11.604;2023-05-16T06:17:49;94677.91;;;12.49;100.00
13314;BME280;6725;48.112;11.604;2023-05-16T06:20:15;94684.63;;;12.60;100.00
13314;BME280;6725;48.112;11.604;2023-05-16T06:22:40;94692.06;;;12.60;100.00
13314;BME280;6725;48.112;11.604;2023-05-16T06:25:06;94699.63;;;12.56;100.00
13314;BME280;6725;48.112;11.604;2023-05-16T06:27:32;94696.38;;;12.61;100.00
13314;BME280;6725;48.112;11.604;2023-05-16T06:29:57;94690.81;;;12.77;100.00
13314;BME280;6725;48.112;11.604;2023-05-16T06:32:22;94704.53;;;12.77;100.00
13314;BME280;6725;48.112;11.604;2023-05-16T06:34:48;94707.00;;;13.00;100.00
13314;BME280;6725;48.112;11.604;2023-05-16T06:37:13;94721.31;;;13.20;100.00
13314;BME280;6725;48.112;11.604;2023-05-16T06:39:39;94729.47;;;13.36;100.00
13314;BME280;6725;48.112;11.604;2023-05-16T06:42:04;94739.56;;;13.39;100.00
13314;BME280;6725;48.112;11.604;2023-05-16T06:44:30;94751.19;;;13.43;100.00
13314;BME280;6725;48.112;11.604;2023-05-16T06:46:55;94758.69;;;13.43;100.00
13314;BME280;6725;48.112;11.604;2023-05-16T06:49:20;94758.00;;;13.51;100.00
13314;BME280;6725;48.112;11.604;2023-05-16T06:51:46;94767.13;;;13.48;100.00
13314;BME280;6725;48.112;11.604;2023-05-16T06:54:11;94776.31;;;13.42;100.00
13314;BME280;6725;48.112;11.604;2023-05-16T06:56:36;94784.63;;;13.25;100.00
13314;BME280;6725;48.112;11.604;2023-05-16T06:59:02;94778.00;;;13.10;100.00
13314;BME280;6725;48.112;11.604;2023-05-16T07:01:27;94781.19;;;13.09;100.00
13314;BME280;6725;48.112;11.604;2023-05-16T07:03:53;94775.50;;;13.16;100.00
13314;BME280;6725;48.112;11.604;2023-05-16T07:06:18;94758.53;;;13.33;100.00
13314;BME280;6725;48.112;11.604;2023-05-16T07:08:43;94764.38;;;13.48;100.00
13314;BME280;6725;48.112;11.604;2023-05-16T07:11:09;94776.03;;;13.52;100.00
13314;BME280;6725;48.112;11.604;2023-05-16T07:13:36;94767.25;;;13.57;100.00
13314;BME280;6725;48.112;11.604;2023-05-16T07:16:01;94774.25;;;13.58;100.00
13314;BME280;6725;48.112;11.604;2023-05-16T07:18:27;94772.06;;;13.53;100.00
13314;BME280;6725;48.112;11.604;2023-05-16T07:20:52;94775.13;;;13.55;100.00
13314;BME280;6725;48.112;11.604;2023-05-16T07:23:18;94768.56;;;13.65;100.00
13314;BME280;6725;48.112;11.604;2023-05-16T07:25:43;94768.09;;;13.54;100.00
13314;BME280;6725;48.112;11.604;2023-05-16T07:28:09;94771.41;;;13.49;100.00
13314;BME280;6725;48.112;11.604;2023-05-16T07:30:34;94768.88;;;13.42;100.00
13314;BME280;6725;48.112;11.604;2023-05-16T07:32:59;94772.78;;;13.28;100.00
13314;BME280;6725;48.112;11.604;2023-05-16T07:35:25;94781.88;;;13.25;100.00
13314;BME280;6725;48.112;11.604;2023-05-16T07:37:51;94770.69;;;13.20;100.00
13314;BME280;6725;48.112;11.604;2023-05-16T07:40:16;94769.47;;;13.21;100.00
13314;BME280;6725;48.112;11.604;2023-05-16T07:42:42;94763.00;;;13.15;100.00
13314;BME280;6725;48.112;11.604;2023-05-16T07:45:08;94764.72;;;13.09;100.00
13314;BME280;6725;48.112;11.604;2023-05-16T07:47:34;94771.75;;;13.10;100.00
13314;BME280;6725;48.112;11.604;2023-05-16T07:50:00;94767.13;;;13.07;100.00
13314;BME280;6725;48.112;11.604;2023-05-16T07:52:25;94772.28;;;13.05;100.00
13314;BME280;6725;48.112;11.604;2023-05-16T07:54:51;94753.09;;;13.05;100.00
13314;BME280;6725;48.112;11.604;2023-05-16T07:57:17;94758.22;;;13.03;100.00
13314;BME280;6725;48.112;11.604;2023-05-16T07:59:42;94755.09;;;12.88;100.00
13314;BME280;6725;48.112;11.604;2023-05-16T08:02:09;94750.00;;;12.74;100.00
13314;BME280;6725;48.112;11.604;2023-05-16T08:04:35;94742.22;;;12.73;100.00
13314;BME280;6725;48.112;11.604;2023-05-16T08:07:00;94739.81;;;12.75;100.00
13314;BME280;6725;48.112;11.604;2023-05-16T08:09:26;94743.53;;;12.52;100.00
13314;BME280;6725;48.112;11.604;2023-05-16T08:11:51;94735.75;;;12.51;100.00
13314;BME280;6725;48.112;11.604;2023-05-16T08:14:17;94724.00;;;12.66;100.00
13314;BME280;6725;48.112;11.604;2023-05-16T08:16:42;94710.53;;;12.72;100.00
13314;BME280;6725;48.112;11.604;2023-05-16T08:19:08;94714.97;;;12.82;100.00
13314;BME280;6725;48.112;11.604;2023-05-16T08:21:33;94715.09;;;12.91;100.00
13314;BME280;6725;48.112;11.604;2023-05-16T08:23:59;94709.34;;;13.14;100.00
13314;BME280;6725;48.112;11.604;2023-05-16T08:26:24;94713.22;;;13.29;100.00
13314;BME280;6725;48.112;11.604;2023-05-16T08:28:50;94723.88;;;13.27;100.00
13314;BME280;6725;48.112;11.604;2023-05-16T08:31:16;94731.97;;;13.30;100.00
13314;BME280;6725;48.112;11.604;2023-05-16T08:33:41;94734.63;;;13.34;100.00
13314;BME280;6725;48.112;11.604;2023-05-16T08:36:08;94737.16;;;13.41;100.00
13314;BME280;6725;48.112;11.604;2023-05-16T08:38:33;94739.81;;;13.57;100.00
13314;BME280;6725;48.112;11.604;2023-05-16T08:40:59;94739.59;;;13.64;100.00
13314;BME280;6725;48.112;11.604;2023-05-16T08:43:24;94740.03;;;13.75;100.00
13314;BME280;6725;48.112;11.604;2023-05-16T08:45:50;94747.69;;;13.80;100.00
13314;BME280;6725;48.112;11.604;2023-05-16T08:48:16;94749.69;;;13.92;100.00
13314;BME280;6725;48.112;11.604;2023-05-16T08:50:43;94756.50;;;14.00;100.00
13314;BME280;6725;48.112;11.604;2023-05-16T08:53:10;94762.31;;;14.02;100.00
13314;BME280;6725;48.112;11.604;2023-05-16T08:55:38;94761.13;;;14.03;100.00
13314;BME280;6725;48.112;11.604;2023-05-16T08:58:05;94767.25;;;13.95;100.00
13314;BME280;6725;48.112;11.604;2023-05-16T09:00:31;94775.94;;;13.93;100.00
13314;BME280;6725;48.112;11.604;2023-05-16T09:02:56;94768.91;;;13.92;100.00
13314;BME280;6725;48.112;11.604;2023-05-16T09:05:22;94770.88;;;13.79;100.00
13314;BME280;6725;48.112;11.604;2023-05-16T09:07:48;94762.00;;;13.75;100.00
13314;BME280;6725;48.112;11.604;2023-05-16T09:10:14;94743.34;;;13.70;100.00
13314;BME280;6725;48.112;11.604;2023-05-16T09:12:40;94731.88;;;13.84;100.00
13314;BME280;6725;48.112;11.604;2023-05-16T09:15:08;94717.41;;;13.96;100.00
13314;BME280;6725;48.112;11.604;2023-05-16T09:17:45;94703.53;;;14.25;100.00
13314;BME280;6725;48.112;11.604;2023-05-16T09:22:37;94719.16;;;14.83;100.00
13314;BME280;6725;48.112;11.604;2023-05-16T09:25:03;94725.63;;;15.32;100.00
13314;BME280;6725;48.112;11.604;2023-05-16T09:27:32;94763.78;;;15.73;100.00
13314;BME280;6725;48.112;11.604;2023-05-16T09:29:58;94784.13;;;16.06;100.00
13314;BME280;6725;48.112;11.604;2023-05-16T09:32:24;94808.53;;;16.57;100.00
13314;BME280;6725;48.112;11.604;2023-05-16T09:34:52;94826.66;;;16.85;100.00
13314;BME280;6725;48.112;11.604;2023-05-16T09:37:18;94832.38;;;17.26;100.00
13314;BME280;6725;48.112;11.604;2023-05-16T09:39:48;94847.25;;;17.29;100.00
13314;BME280;6725;48.112;11.604;2023-05-16T09:42:15;94861.81;;;17.02;100.00
13314;BME280;6725;48.112;11.604;2023-05-16T09:44:51;94863.25;;;16.67;100.00
13314;BME280;6725;48.112;11.604;2023-05-16T09:47:17;94851.41;;;16.58;100.00
13314;BME280;6725;48.112;11.604;2023-05-16T09:49:44;94849.56;;;16.55;100.00
13314;BME280;6725;48.112;11.604;2023-05-16T09:52:10;94849.22;;;16.43;100.00
13314;BME280;6725;48.112;11.604;2023-05-16T09:54:36;94856.19;;;16.35;100.00
13314;BME280;6725;48.112;11.604;2023-05-16T09:57:01;94849.09;;;16.47;100.00
13314;BME280;6725;48.112;11.604;2023-05-16T09:59:34;94855.34;;;16.48;100.00
13314;BME280;6725;48.112;11.604;2023-05-16T10:02:00;94860.38;;;16.40;100.00
13314;BME280;6725;48.112;11.604;2023-05-16T10:04:25;94861.69;;;15.74;100.00
13314;BME280;6725;48.112;11.604;2023-05-16T10:06:52;94860.84;;;15.65;100.00
13314;BME280;6725;48.112;11.604;2023-05-16T10:09:19;94851.13;;;15.51;100.00
13314;BME280;6725;48.112;11.604;2023-05-16T10:11:47;94845.69;;;15.26;100.00
13314;BME280;6725;48.112;11.604;2023-05-16T10:14:12;94853.00;;;15.20;100.00
13314;BME280;6725;48.112;11.604;2023-05-16T10:16:42;94846.84;;;15.16;100.00
13314;BME280;6725;48.112;11.604;2023-05-16T10:19:09;94832.28;;;15.28;100.00
13314;BME280;6725;48.112;11.604;2023-05-16T10:21:36;94833.28;;;15.22;100.00
13314;BME280;6725;48.112;11.604;2023-05-16T10:26:37;94827.84;;;15.43;100.00
13314;BME280;6725;48.112;11.604;2023-05-16T10:29:03;94815.13;;;15.24;100.00
13314;BME280;6725;48.112;11.604;2023-05-16T10:31:29;94819.22;;;15.20;100.00
13314;BME280;6725;48.112;11.604;2023-05-16T10:33:56;94818.03;;;15.08;100.00
13314;BME280;6725;48.112;11.604;2023-05-16T10:36:22;94808.25;;;15.07;100.00
13314;BME280;6725;48.112;11.604;2023-05-16T10:38:48;94799.03;;;15.01;100.00
13314;BME280;6725;48.112;11.604;2023-05-16T10:41:15;94800.97;;;14.79;100.00
13314;BME280;6725;48.112;11.604;2023-05-16T10:43:43;94791.59;;;14.55;100.00
13314;BME280;6725;48.112;11.604;2023-05-16T10:46:09;94776.44;;;14.51;100.00
13314;BME280;6725;48.112;11.604;2023-05-16T10:48:37;94758.13;;;14.35;100.00
13314;BME280;6725;48.112;11.604;2023-05-16T10:51:31;94739.34;;;14.21;100.00
13314;BME280;6725;48.112;11.604;2023-05-16T10:53:50;94717.91;;;14.16;100.00
13314;BME280;6725;48.112;11.604;2023-05-16T10:56:22;94680.34;;;14.13;100.00
13314;BME280;6725;48.112;11.604;2023-05-16T10:58:48;94641.50;;;14.02;100.00
13314;BME280;6725;48.112;11.604;2023-05-16T11:19:28;94243.97;;;13.49;100.00
13314;BME280;6725;48.112;11.604;2023-05-16T11:22:08;94200.25;;;13.45;100.00
13314;BME280;6725;48.112;11.604;2023-05-16T11:24:35;94182.81;;;13.30;100.00
13314;BME280;6725;48.112;11.604;2023-05-16T11:27:02;94148.97;;;13.33;100.00
13314;BME280;6725;48.112;11.604;2023-05-16T11:29:35;94104.97;;;13.37;100.00
13314;BME280;6725;48.112;11.604;2023-05-16T11:32:03;94026.56;;;13.48;100.00
13314;BME280;6725;48.112;11.604;2023-05-16T11:34:29;94000.91;;;13.33;100.00
13314;BME280;6725;48.112;11.604;2023-05-16T11:36:55;93980.53;;;13.34;100.00
13314;BME280;6725;48.112;11.604;2023-05-16T11:39:21;93971.06;;;13.35;100.00
13314;BME280;6725;48.112;11.604;2023-05-16T11:41:49;93970.47;;;13.31;100.00
13314;BME280;6725;48.112;11.604;2023-05-16T11:44:15;93967.69;;;13.22;100.00
13314;BME280;6725;48.112;11.604;2023-05-16T11:46:41;93943.94;;;13.19;100.00
13314;BME280;6725;48.112;11.604;2023-05-16T11:49:08;93947.72;;;13.12;100.00
13314;BME280;6725;48.112;11.604;2023-05-16T11:51:38;93939.97;;;13.20;100.00
13314;BME280;6725;48.112;11.604;2023-05-16T11:54:05;93937.53;;;13.22;100.00
13314;BME280;6725;48.112;11.604;2023-05-16T11:56:31;93943.66;;;13.26;100.00
13314;BME280;6725;48.112;11.604;2023-05-16T11:58:59;93939.69;;;13.36;100.00
13314;BME280;6725;48.112;11.604;2023-05-16T12:01:24;93963.00;;;13.32;100.00
13314;BME280;6725;48.112;11.604;2023-05-16T12:03:56;93966.50;;;13.50;100.00
13314;BME280;6725;48.112;11.604;2023-05-16T12:06:22;93954.91;;;13.73;100.00
13314;BME280;6725;48.112;11.604;2023-05-16T12:08:51;93965.28;;;13.87;100.00
13314;BME280;6725;48.112;11.604;2023-05-16T12:11:17;93981.75;;;13.96;100.00
13314;BME280;6725;48.112;11.604;2023-05-16T12:13:42;93992.72;;;14.14;100.00
13314;BME280;6725;48.112;11.604;2023-05-16T12:16:08;94035.69;;;14.17;100.00
13314;BME280;6725;48.112;11.604;2023-05-16T12:18:35;94079.94;;;14.19;100.00
13314;BME280;6725;48.112;11.604;2023-05-16T12:21:03;94108.06;;;14.32;100.00
13314;BME280;6725;48.112;11.604;2023-05-16T12:23:28;94140.69;;;14.48;100.00
13314;BME280;6725;48.112;11.604;2023-05-16T12:25:55;94181.13;;;14.66;100.00
13314;BME280;6725;48.112;11.604;2023-05-16T12:28:21;94208.78;;;14.80;100.00
13314;BME280;6725;48.112;11.604;2023-05-16T12:30:47;94253.53;;;14.90;100.00
13314;BME280;6725;48.112;11.604;2023-05-16T12:33:14;94275.38;;;15.20;100.00
13314;BME280;6725;48.112;11.604;2023-05-16T12:35:41;94294.59;;;15.47;100.00
13314;BME280;6725;48.112;11.604;2023-05-16T12:38:09;94349.47;;;15.51;100.00
13314;BME280;6725;48.112;11.604;2023-05-16T12:40:41;94406.81;;;15.70;100.00
13314;BME280;6725;48.112;11.604;2023-05-16T12:43:20;94431.56;;;15.97;100.00
13314;BME280;6725;48.112;11.604;2023-05-16T12:45:56;94491.69;;;15.90;100.00
13314;BME280;6725;48.112;11.604;2023-05-16T12:48:23;94536.53;;;15.90;100.00
13314;BME280;6725;48.112;11.604;2023-05-16T12:50:53;94585.91;;;15.76;100.00
13314;BME280;6725;48.112;11.604;2023-05-16T12:53:19;94615.28;;;15.70;100.00
13314;BME280;6725;48.112;11.604;2023-05-16T12:55:45;94654.84;;;15.63;100.00
13314;BME280;6725;48.112;11.604;2023-05-16T12:58:11;94666.13;;;15.56;100.00
13314;BME280;6725;48.112;11.604;2023-05-16T13:00:36;94660.28;;;15.45;100.00
13314;BME280;6725;48.112;11.604;2023-05-16T13:03:04;94644.38;;;15.40;100.00
13314;BME280;6725;48.112;11.604;2023-05-16T13:05:29;94632.75;;;15.45;100.00
13314;BME280;6725;48.112;11.604;2023-05-16T13:07:55;94609.44;;;15.59;100.00
13314;BME280;6725;48.112;11.604;2023-05-16T13:10:20;94604.38;;;15.66;100.00
13314;BME280;6725;48.112;11.604;2023-05-16T13:12:45;94610.50;;;15.70;100.00
13314;BME280;6725;48.112;11.604;2023-05-16T13:15:12;94618.47;;;15.68;100.00
13314;BME280;6725;48.112;11.604;2023-05-16T13:17:38;94615.31;;;15.88;100.00
13314;BME280;6725;48.112;11.604;2023-05-16T13:20:05;94631.84;;;15.88;100.00